Ander, Texas
Current Conditions -  °F | °C
As of 9:55 PM on Thursday 18 Dec 2014 (Local Time) from KBEA Reporting Station
Thunderstorm Thunderstorm  
Wind Chill: 18°   Ceiling: 500
Heat Index: 18°   Visibility: 3mi
Dew Point: 18°   Wind: 6mph
Humidity: 100%   Direction: 60°ENE
Pressure: 30.01"   Gusts: NA
Location:  28.6563°N, 97.4287°W
Report Text: KBEA 190355Z AUTO 06005KT 3SM +VCTSRA OVC005 18/18 A3001 RMK AO2 LTG DSNT N T01750175
Loading
Personal Weather Stations






























Interactive Weather Map New forecast layout! Learn more

10-Day Weather Forecast

Advertisements
Track Severe Weather on mobile